Time;durP1;ratioP1;P1;durP2;ratioP2;P2;SDS_P1;SDS_P2;PMS_P1;PMS_P2;Temp;Humidity;BMP_temperature;BMP_pressure;BME280_temperature;BME280_humidity;BME280_pressure;Samples;Min_cycle;Max_cycle;Signal;HPM_P1;HPM_P2
2022/02/17 00:00:06;;;;;;;1.17;1.07;;;2.10;99.90;;;;;;6286217;28;20269;-71
2022/02/17 00:03:22;;;;;;;1.30;1.30;;;2.10;99.90;;;;;;6285308;28;20296;-72
2022/02/17 00:06:27;;;;;;;1.10;1.10;;;2.10;99.90;;;;;;6285355;28;20268;-72
2022/02/17 00:09:33;;;;;;;1.30;1.30;;;2.10;99.90;;;;;;6285643;28;20300;-72
2022/02/17 00:12:38;;;;;;;1.00;1.00;;;2.10;99.90;;;;;;6285373;28;20299;-72
2022/02/17 00:15:44;;;;;;;1.37;1.20;;;2.00;99.90;;;;;;6285147;28;20270;-72
2022/02/17 00:18:53;;;;;;;1.03;1.03;;;2.10;99.90;;;;;;6286263;28;20298;-72
2022/02/17 00:21:58;;;;;;;1.00;1.00;;;2.10;99.90;;;;;;6289086;28;20299;-72
2022/02/17 00:25:06;;;;;;;1.10;1.10;;;2.00;99.90;;;;;;6290614;28;20271;-72
2022/02/17 00:28:13;;;;;;;1.10;1.10;;;2.00;99.90;;;;;;6289134;28;20296;-71
2022/02/17 00:31:19;;;;;;;0.87;0.87;;;2.00;99.90;;;;;;6289725;28;20291;-72
2022/02/17 00:34:25;;;;;;;1.00;1.00;;;2.10;99.90;;;;;;6271844;28;20295;-72
2022/02/17 00:37:31;;;;;;;0.90;0.90;;;2.10;99.90;;;;;;6288942;28;20295;-71
2022/02/17 00:40:38;;;;;;;1.00;1.00;;;2.00;99.90;;;;;;6272675;28;20338;-71
2022/02/17 00:43:43;;;;;;;0.90;0.90;;;2.00;99.90;;;;;;6289014;28;20300;-72
2022/02/17 00:46:49;;;;;;;1.20;1.20;;;2.10;99.90;;;;;;6272119;28;20559;-71
2022/02/17 00:49:56;;;;;;;1.10;1.10;;;2.00;99.90;;;;;;6289929;28;20295;-72
2022/02/17 00:53:05;;;;;;;0.87;0.87;;;2.10;99.90;;;;;;6271211;28;20303;-72
2022/02/17 00:56:11;;;;;;;1.10;1.10;;;2.00;99.90;;;;;;6289386;28;20283;-72
2022/02/17 00:59:18;;;;;;;1.10;1.10;;;2.00;99.90;;;;;;6271615;28;20304;-72
2022/02/17 01:02:23;;;;;;;1.10;1.10;;;2.00;99.90;;;;;;6270915;28;20291;-72
2022/02/17 01:05:31;;;;;;;1.03;1.03;;;2.00;99.90;;;;;;6271472;28;20271;-73
2022/02/17 01:08:37;;;;;;;0.90;0.90;;;2.00;99.90;;;;;;6271455;28;20446;-72
2022/02/17 01:11:45;;;;;;;1.00;1.00;;;2.00;99.90;;;;;;6289029;28;20264;-72
2022/02/17 01:14:50;;;;;;;1.00;1.00;;;2.10;99.90;;;;;;6289007;28;20299;-72
2022/02/17 01:17:56;;;;;;;0.90;0.90;;;2.00;99.90;;;;;;6271043;28;20298;-72
2022/02/17 01:21:05;;;;;;;1.07;1.07;;;2.10;99.90;;;;;;6288641;28;20276;-72
2022/02/17 01:24:12;;;;;;;1.10;1.10;;;2.10;99.90;;;;;;6288391;28;20586;-72
2022/02/17 01:27:19;;;;;;;0.97;0.90;;;2.10;99.90;;;;;;6270392;28;20436;-73
2022/02/17 01:30:25;;;;;;;1.00;1.00;;;2.10;99.90;;;;;;6288283;28;20277;-72
2022/02/17 01:33:30;;;;;;;1.10;1.10;;;2.10;99.90;;;;;;6287997;28;20479;-72
2022/02/17 01:36:48;;;;;;;1.50;1.07;;;2.00;99.90;;;;;;6270707;28;20271;-72
2022/02/17 01:39:53;;;;;;;1.30;1.20;;;2.10;99.90;;;;;;6270496;28;20450;-72
2022/02/17 01:43:01;;;;;;;1.40;1.40;;;2.10;99.90;;;;;;6286378;28;20594;-72
2022/02/17 01:46:09;;;;;;;1.27;1.27;;;2.10;99.90;;;;;;6270661;28;20271;-73
2022/02/17 01:49:15;;;;;;;1.20;1.20;;;2.10;99.90;;;;;;6270755;28;20299;-72
2022/02/17 01:52:23;;;;;;;1.10;1.10;;;2.10;99.90;;;;;;6269575;28;20307;-72
2022/02/17 01:55:29;;;;;;;1.10;1.10;;;2.10;99.90;;;;;;6288289;28;20276;-72
2022/02/17 01:58:34;;;;;;;1.20;1.20;;;2.10;99.90;;;;;;6287284;28;20299;-72
2022/02/17 02:01:49;;;;;;;1.10;1.10;;;2.10;99.90;;;;;;6270329;28;20271;-73
2022/02/17 02:04:55;;;;;;;1.30;1.30;;;2.10;99.90;;;;;;6269123;28;20290;-72
2022/02/17 02:08:03;;;;;;;1.03;1.03;;;2.10;99.90;;;;;;6287079;28;20301;-72
2022/02/17 02:11:15;;;;;;;1.23;1.23;;;2.10;99.90;;;;;;6280408;28;20263;-72
2022/02/17 02:14:29;;;;;;;1.20;1.20;;;2.00;99.90;;;;;;6269308;28;20302;-72
2022/02/17 02:17:38;;;;;;;1.30;1.30;;;2.00;99.90;;;;;;6269218;28;20302;-72
2022/02/17 02:20:47;;;;;;;1.30;1.30;;;2.00;99.90;;;;;;6287737;28;20275;-72
2022/02/17 02:23:52;;;;;;;1.10;1.10;;;2.00;99.90;;;;;;6268770;28;20307;-72
2022/02/17 02:26:58;;;;;;;1.20;1.20;;;1.90;99.90;;;;;;6268851;28;20278;-73
2022/02/17 02:30:09;;;;;;;1.00;1.00;;;2.00;99.90;;;;;;6269829;28;20210;-72
2022/02/17 02:33:18;;;;;;;1.13;1.13;;;1.90;99.90;;;;;;6269129;28;20298;-72
2022/02/17 02:36:25;;;;;;;1.20;1.20;;;1.90;99.90;;;;;;6269699;28;20275;-72
2022/02/17 02:39:36;;;;;;;1.00;1.00;;;1.90;99.90;;;;;;6269471;28;20303;-72
2022/02/17 02:42:41;;;;;;;1.00;1.00;;;1.90;99.90;;;;;;6269016;28;20314;-72
2022/02/17 02:45:49;;;;;;;1.10;1.10;;;1.90;99.90;;;;;;6269966;28;20596;-72
2022/02/17 02:48:55;;;;;;;1.30;1.30;;;1.90;99.90;;;;;;6268625;28;20592;-72
2022/02/17 02:52:02;;;;;;;0.90;0.90;;;1.90;99.90;;;;;;6268341;28;20275;-72
2022/02/17 02:55:36;;;;;;;1.00;1.00;;;1.90;99.90;;;;;;6277607;28;20296;-72
2022/02/17 02:58:42;;;;;;;0.90;0.90;;;1.90;99.90;;;;;;6286154;28;20295;-72
2022/02/17 03:01:47;;;;;;;1.00;1.00;;;1.90;99.90;;;;;;6287013;28;20272;-72
2022/02/17 03:04:53;;;;;;;0.97;0.97;;;1.80;99.90;;;;;;6268250;28;20299;-72
2022/02/17 03:08:00;;;;;;;1.10;1.10;;;1.80;99.90;;;;;;6268271;28;20323;-72
2022/02/17 03:11:08;;;;;;;1.30;1.30;;;1.80;99.90;;;;;;6268751;28;20275;-72
2022/02/17 03:14:17;;;;;;;1.10;1.10;;;1.80;99.90;;;;;;6268007;28;20303;-72
2022/02/17 03:17:22;;;;;;;1.00;1.00;;;1.80;99.90;;;;;;6268295;28;20296;-72
2022/02/17 03:20:30;;;;;;;1.00;1.00;;;1.80;99.90;;;;;;6268551;28;20270;-72
2022/02/17 03:23:41;;;;;;;0.90;0.90;;;1.70;99.90;;;;;;6267854;28;20594;-73
2022/02/17 03:26:51;;;;;;;1.00;1.00;;;1.80;99.90;;;;;;6268851;28;20274;-72
2022/02/17 03:29:57;;;;;;;1.00;1.00;;;1.80;99.90;;;;;;6268147;28;20442;-72
2022/02/17 03:33:03;;;;;;;0.97;0.97;;;1.70;99.90;;;;;;6267616;28;20466;-72
2022/02/17 03:36:11;;;;;;;0.90;0.90;;;1.70;99.90;;;;;;6252474;28;20290;-72
2022/02/17 03:39:19;;;;;;;0.97;0.97;;;1.70;99.90;;;;;;6268491;28;20292;-71
2022/02/17 03:42:51;;;;;;;1.00;1.00;;;1.70;99.90;;;;;;6281648;28;20302;-72
2022/02/17 03:45:56;;;;;;;1.10;1.10;;;1.70;99.90;;;;;;6268469;28;20279;-71
2022/02/17 03:49:03;;;;;;;1.27;1.27;;;1.60;99.90;;;;;;6285648;28;20298;-72
2022/02/17 03:52:10;;;;;;;1.10;1.10;;;1.70;99.90;;;;;;6267986;28;20278;-73
2022/02/17 03:55:18;;;;;;;1.00;1.00;;;1.70;99.90;;;;;;6271831;28;20292;-72
2022/02/17 04:01:51;;;;;;;1.20;1.20;;;1.60;99.90;;;;;;6271784;28;20275;-72
2022/02/17 04:05:00;;;;;;;1.40;1.40;;;1.60;99.90;;;;;;6288960;28;20279;-72
2022/02/17 04:08:06;;;;;;;1.00;1.00;;;1.70;99.90;;;;;;6289865;28;20296;-72
2022/02/17 04:11:13;;;;;;;1.20;1.20;;;1.70;99.90;;;;;;6272933;28;20264;-72
2022/02/17 04:14:21;;;;;;;1.40;1.30;;;1.70;99.90;;;;;;6265141;28;20570;-73
2022/02/17 04:17:29;;;;;;;1.00;1.00;;;1.70;99.90;;;;;;6272170;28;20292;-72
2022/02/17 04:21:01;;;;;;;1.10;1.10;;;1.70;99.90;;;;;;6252195;28;20266;-72
2022/02/17 04:24:13;;;;;;;1.00;1.00;;;1.70;99.90;;;;;;6289614;28;20298;-72
2022/02/17 04:27:32;;;;;;;1.07;1.07;;;1.70;99.90;;;;;;6271957;28;20294;-72
2022/02/17 04:30:41;;;;;;;0.90;0.90;;;1.70;99.90;;;;;;6272196;28;20278;-72
2022/02/17 04:33:47;;;;;;;0.90;0.90;;;1.70;99.90;;;;;;6272423;28;20314;-72
2022/02/17 04:36:57;;;;;;;1.00;1.00;;;1.70;99.90;;;;;;6287826;28;20299;-72
2022/02/17 04:40:02;;;;;;;1.00;1.00;;;1.70;99.90;;;;;;6272252;28;20570;-72
2022/02/17 04:43:17;;;;;;;0.90;0.90;;;1.70;99.90;;;;;;6271785;28;20296;-72
2022/02/17 04:46:24;;;;;;;1.10;1.10;;;1.70;99.90;;;;;;6271524;28;20279;-71
2022/02/17 04:49:30;;;;;;;0.87;0.87;;;1.70;99.90;;;;;;6271175;28;20295;-71
2022/02/17 04:52:36;;;;;;;1.00;1.00;;;1.70;99.90;;;;;;6271185;28;20306;-72
2022/02/17 04:55:41;;;;;;;0.83;0.83;;;1.80;99.90;;;;;;6289725;28;20294;-71
2022/02/17 04:58:49;;;;;;;0.87;0.87;;;1.70;99.90;;;;;;6288909;28;20472;-71
2022/02/17 05:01:54;;;;;;;0.80;0.80;;;1.70;99.90;;;;;;6271153;28;20298;-71
2022/02/17 05:05:12;;;;;;;0.87;0.87;;;1.80;99.90;;;;;;6271143;28;20275;-71
2022/02/17 05:08:17;;;;;;;1.00;1.00;;;1.80;99.90;;;;;;6271366;28;20306;-72
2022/02/17 05:11:23;;;;;;;1.10;1.10;;;1.80;99.90;;;;;;6288023;28;20275;-71
2022/02/17 05:14:31;;;;;;;1.10;1.03;;;1.70;99.90;;;;;;6270842;28;20295;-72
2022/02/17 05:17:37;;;;;;;0.90;0.90;;;1.70;99.90;;;;;;6270885;28;20302;-72
2022/02/17 05:20:42;;;;;;;0.97;0.97;;;1.80;99.90;;;;;;6271223;28;20274;-72
2022/02/17 05:24:04;;;;;;;1.17;1.17;;;1.80;99.90;;;;;;6271019;28;20300;-72
2022/02/17 05:27:45;;;;;;;1.03;1.03;;;1.80;99.90;;;;;;6288440;28;20468;-72
2022/02/17 05:31:02;;;;;;;1.10;1.10;;;1.80;99.90;;;;;;6270611;28;20276;-72
2022/02/17 05:34:37;;;;;;;1.20;1.20;;;1.80;99.90;;;;;;6275008;28;20297;-72
2022/02/17 05:37:53;;;;;;;1.20;1.20;;;1.80;99.90;;;;;;6269486;28;20336;-72
2022/02/17 05:41:15;;;;;;;1.33;1.33;;;1.90;99.90;;;;;;6271369;28;20270;-73
2022/02/17 05:44:22;;;;;;;1.20;1.20;;;1.80;99.90;;;;;;6287724;28;20302;-72
2022/02/17 05:47:30;;;;;;;1.20;1.20;;;1.90;99.90;;;;;;6287479;28;20298;-72
2022/02/17 05:50:35;;;;;;;1.30;1.30;;;1.80;99.90;;;;;;6288330;28;20279;-72
2022/02/17 05:53:40;;;;;;;1.30;1.30;;;1.90;99.90;;;;;;6287256;28;20296;-72
2022/02/17 05:56:45;;;;;;;1.43;1.43;;;1.90;99.90;;;;;;6287251;28;20293;-72
2022/02/17 05:59:50;;;;;;;1.30;1.30;;;1.90;99.90;;;;;;6287266;28;20299;-72
2022/02/17 06:02:59;;;;;;;1.47;1.47;;;1.90;99.90;;;;;;6287679;28;20295;-72
2022/02/17 06:06:05;;;;;;;1.40;1.30;;;1.90;99.90;;;;;;6288506;28;20287;-72
2022/02/17 06:09:10;;;;;;;1.37;1.37;;;1.90;99.90;;;;;;6286997;28;20296;-72
2022/02/17 06:12:16;;;;;;;1.30;1.30;;;1.90;99.90;;;;;;6286521;28;20291;-72
2022/02/17 06:15:21;;;;;;;1.50;1.50;;;1.90;99.90;;;;;;6288011;28;20275;-72
2022/02/17 06:18:28;;;;;;;1.40;1.40;;;1.90;99.90;;;;;;6285760;28;20401;-72
2022/02/17 06:21:34;;;;;;;1.40;1.40;;;1.90;99.90;;;;;;6283111;28;20340;-72
2022/02/17 06:24:41;;;;;;;1.23;1.23;;;1.90;99.90;;;;;;6262050;28;20324;-70
2022/02/17 06:27:48;;;;;;;1.33;1.33;;;1.90;99.90;;;;;;6262028;28;20307;-72
2022/02/17 06:30:53;;;;;;;1.63;1.63;;;1.90;99.90;;;;;;6262848;28;20275;-72
2022/02/17 06:34:00;;;;;;;1.40;1.40;;;1.80;99.90;;;;;;6261541;28;20304;-72
2022/02/17 06:37:06;;;;;;;1.40;1.40;;;1.90;99.90;;;;;;6261592;28;20299;-73
2022/02/17 06:40:13;;;;;;;1.23;1.23;;;1.80;99.90;;;;;;6261476;28;20275;-71
2022/02/17 06:43:19;;;;;;;1.40;1.40;;;1.90;99.90;;;;;;6261646;28;20296;-73
2022/02/17 06:46:25;;;;;;;1.57;1.57;;;1.90;99.90;;;;;;6262110;28;20555;-73
2022/02/17 06:49:32;;;;;;;1.30;1.30;;;1.90;99.90;;;;;;6244039;28;20787;-73
2022/02/17 06:52:40;;;;;;;1.30;1.30;;;1.90;99.90;;;;;;6261924;28;20300;-73
2022/02/17 06:55:46;;;;;;;1.17;1.17;;;1.90;99.90;;;;;;6262236;28;20270;-73
2022/02/17 06:58:52;;;;;;;1.20;1.20;;;1.90;99.90;;;;;;6261995;28;20307;-73
2022/02/17 07:01:58;;;;;;;1.00;1.00;;;1.90;99.90;;;;;;6260837;28;20267;-73
2022/02/17 07:05:06;;;;;;;1.20;1.20;;;1.90;99.90;;;;;;6262011;28;20272;-72
2022/02/17 07:08:13;;;;;;;1.20;1.10;;;1.90;99.90;;;;;;6260993;28;20307;-73
2022/02/17 07:11:18;;;;;;;1.30;1.30;;;1.90;99.90;;;;;;6261777;28;20266;-73
2022/02/17 07:14:24;;;;;;;1.27;1.27;;;1.90;99.90;;;;;;6261078;28;20308;-73
2022/02/17 07:17:32;;;;;;;1.40;1.30;;;1.90;99.90;;;;;;6261632;28;20292;-74
2022/02/17 07:20:41;;;;;;;1.27;1.27;;;1.90;99.90;;;;;;6261599;28;20513;-74
2022/02/17 07:23:47;;;;;;;1.33;1.33;;;1.90;99.90;;;;;;6282352;28;20304;-73
2022/02/17 07:26:53;;;;;;;1.40;1.40;;;1.90;99.90;;;;;;6285545;28;20280;-73
2022/02/17 07:29:58;;;;;;;1.37;1.37;;;1.90;99.90;;;;;;6293093;28;20275;-74
2022/02/17 07:33:05;;;;;;;1.30;1.30;;;1.90;99.90;;;;;;6294668;28;20295;-74
2022/02/17 07:36:13;;;;;;;1.10;1.10;;;1.90;99.90;;;;;;6294875;28;20267;-73
2022/02/17 07:39:26;;;;;;;1.50;1.40;;;2.00;99.90;;;;;;6294225;28;20303;-73
2022/02/17 07:42:31;;;;;;;1.50;1.50;;;2.00;99.90;;;;;;6293864;28;20475;-73
2022/02/17 07:45:36;;;;;;;1.30;1.30;;;2.00;99.90;;;;;;6294334;28;20300;-73
2022/02/17 07:48:42;;;;;;;1.30;1.30;;;2.00;99.90;;;;;;6294018;28;20301;-74
2022/02/17 07:51:48;;;;;;;1.17;1.17;;;2.00;99.90;;;;;;6294721;28;20275;-74
2022/02/17 07:54:54;;;;;;;1.13;1.13;;;2.00;99.90;;;;;;6293230;28;20321;-73
2022/02/17 07:58:01;;;;;;;1.40;1.30;;;2.00;99.90;;;;;;6293252;28;20306;-73
2022/02/17 08:01:08;;;;;;;1.20;1.20;;;2.00;99.90;;;;;;6294764;28;20271;-74
2022/02/17 08:04:13;;;;;;;1.40;1.13;;;2.10;99.90;;;;;;6293756;28;20289;-74
2022/02/17 08:07:20;;;;;;;1.30;1.17;;;2.10;99.90;;;;;;6292828;28;20370;-74
2022/02/17 08:10:26;;;;;;;1.27;1.27;;;2.10;99.90;;;;;;6294017;28;20538;-74
2022/02/17 08:13:31;;;;;;;1.33;1.33;;;2.10;99.90;;;;;;6293831;28;20298;-74
2022/02/17 08:16:37;;;;;;;1.90;1.50;;;2.10;99.90;;;;;;6294319;28;20274;-72
2022/02/17 08:19:49;;;;;;;1.23;1.23;;;2.20;99.90;;;;;;6293519;28;20311;-72
2022/02/17 08:22:57;;;;;;;1.00;1.00;;;2.30;99.90;;;;;;6293568;28;20301;-74
2022/02/17 08:26:03;;;;;;;1.20;1.20;;;2.20;99.90;;;;;;6293829;28;20598;-73
2022/02/17 08:29:09;;;;;;;1.10;1.10;;;2.30;99.90;;;;;;6293162;28;20311;-72
2022/02/17 08:32:15;;;;;;;1.07;1.07;;;2.30;99.90;;;;;;6293786;28;20307;-74
2022/02/17 08:35:20;;;;;;;1.13;1.13;;;2.20;99.90;;;;;;6293291;28;20271;-73
2022/02/17 08:38:31;;;;;;;1.60;1.60;;;2.30;99.90;;;;;;6292547;28;20494;-73
2022/02/17 08:41:38;;;;;;;1.37;1.37;;;2.30;99.90;;;;;;6289455;28;20277;-74
2022/02/17 08:44:43;;;;;;;1.50;1.40;;;2.30;99.90;;;;;;6289300;28;20301;-73
2022/02/17 08:47:49;;;;;;;1.60;1.60;;;2.20;99.90;;;;;;6289608;28;20306;-74
2022/02/17 08:50:54;;;;;;;1.83;1.73;;;2.30;99.90;;;;;;6289834;28;20288;-73
2022/02/17 08:54:02;;;;;;;1.70;1.50;;;2.30;99.90;;;;;;6289713;28;20303;-73
2022/02/17 08:57:09;;;;;;;1.83;1.83;;;2.30;99.90;;;;;;6288872;28;20283;-74
2022/02/17 09:00:15;;;;;;;2.03;1.93;;;2.20;99.90;;;;;;6290005;28;20291;-73
2022/02/17 09:03:20;;;;;;;1.93;1.70;;;2.30;99.90;;;;;;6288719;28;20295;-73
2022/02/17 09:06:26;;;;;;;2.13;2.03;;;2.20;99.90;;;;;;6289113;28;20275;-74
2022/02/17 09:09:33;;;;;;;2.20;2.20;;;2.30;99.90;;;;;;6288885;28;20320;-73
2022/02/17 09:12:40;;;;;;;2.23;2.17;;;2.40;99.90;;;;;;6289103;28;20295;-74
2022/02/17 09:15:45;;;;;;;2.20;2.20;;;2.40;99.90;;;;;;6289602;28;20291;-73
2022/02/17 09:18:51;;;;;;;2.13;2.10;;;2.40;99.90;;;;;;6288646;28;20299;-73
2022/02/17 09:21:58;;;;;;;2.20;2.20;;;2.40;99.90;;;;;;6287878;28;20472;-74
2022/02/17 09:25:06;;;;;;;1.80;1.80;;;2.40;99.90;;;;;;6288972;28;20270;-73
2022/02/17 09:28:11;;;;;;;2.20;2.10;;;2.40;99.90;;;;;;6287862;28;20295;-73
2022/02/17 09:31:18;;;;;;;2.00;2.00;;;2.40;99.90;;;;;;6288109;28;20344;-73
2022/02/17 09:34:25;;;;;;;1.90;1.83;;;2.50;99.90;;;;;;6288978;28;20295;-73
2022/02/17 09:37:31;;;;;;;2.20;2.10;;;2.40;99.90;;;;;;6287689;28;20314;-73
2022/02/17 09:40:37;;;;;;;2.03;2.03;;;2.50;99.90;;;;;;6288078;28;20291;-73
2022/02/17 09:43:43;;;;;;;1.80;1.80;;;2.50;99.90;;;;;;6287589;28;20300;-73
2022/02/17 09:46:50;;;;;;;2.43;1.90;;;2.40;99.90;;;;;;6288724;28;20271;-73
2022/02/17 09:49:55;;;;;;;2.17;2.07;;;2.50;99.90;;;;;;6286991;28;20689;-73
2022/02/17 09:53:01;;;;;;;1.90;1.83;;;2.50;99.90;;;;;;6286683;28;20293;-73
2022/02/17 09:56:09;;;;;;;1.67;1.67;;;2.50;99.90;;;;;;6287639;28;20276;-73
2022/02/17 09:59:15;;;;;;;1.60;1.50;;;2.60;99.90;;;;;;6287386;28;20304;-73
2022/02/17 10:02:26;;;;;;;1.40;1.33;;;2.40;99.90;;;;;;6287721;28;20471;-73
2022/02/17 10:05:32;;;;;;;1.40;1.40;;;2.40;99.90;;;;;;6288136;28;20267;-73
2022/02/17 10:08:37;;;;;;;1.40;1.40;;;2.50;99.90;;;;;;6287456;28;20304;-73
2022/02/17 10:11:51;;;;;;;1.30;1.20;;;2.40;99.90;;;;;;6287546;28;20271;-73
2022/02/17 10:14:59;;;;;;;2.10;0.90;;;2.60;99.90;;;;;;6286423;28;20275;-73
2022/02/17 10:18:09;;;;;;;1.20;1.20;;;2.50;99.90;;;;;;6287178;28;20322;-73
2022/02/17 10:21:15;;;;;;;1.50;1.50;;;2.40;99.90;;;;;;6288179;28;20304;-73
2022/02/17 10:24:39;;;;;;;1.23;1.23;;;2.50;99.90;;;;;;6287417;28;20302;-73
2022/02/17 10:27:48;;;;;;;1.40;1.33;;;2.50;99.90;;;;;;6287415;28;20300;-72
2022/02/17 10:30:53;;;;;;;1.37;1.30;;;2.50;99.90;;;;;;6286973;28;20454;-73
2022/02/17 10:34:00;;;;;;;3.30;1.53;;;2.50;99.90;;;;;;6287011;28;20297;-73
2022/02/17 10:37:06;;;;;;;1.63;1.53;;;2.60;99.90;;;;;;6286764;28;20270;-74
2022/02/17 10:40:20;;;;;;;2.20;1.50;;;2.60;99.90;;;;;;6286826;28;20296;-72
2022/02/17 10:43:30;;;;;;;1.40;1.30;;;2.70;99.90;;;;;;6286915;28;20310;-72
2022/02/17 10:46:36;;;;;;;1.50;1.50;;;2.70;99.90;;;;;;6286285;28;20271;-72
2022/02/17 10:49:43;;;;;;;1.33;1.33;;;2.70;99.90;;;;;;6286229;28;20303;-72
2022/02/17 10:52:48;;;;;;;1.30;1.30;;;2.80;99.90;;;;;;6286756;28;20294;-73
2022/02/17 10:55:56;;;;;;;2.03;1.90;;;2.90;99.90;;;;;;6286047;28;20272;-72
2022/02/17 10:59:06;;;;;;;1.53;1.50;;;2.90;99.90;;;;;;6286241;28;20294;-73
2022/02/17 11:02:13;;;;;;;1.30;1.30;;;2.90;99.90;;;;;;6285160;28;20459;-73
2022/02/17 11:05:20;;;;;;;1.40;1.40;;;2.80;99.90;;;;;;6286678;28;20272;-72
2022/02/17 11:08:25;;;;;;;1.40;1.40;;;2.80;99.90;;;;;;6286357;28;20294;-73
2022/02/17 11:11:31;;;;;;;1.57;1.57;;;2.80;99.90;;;;;;6287026;28;20550;-72
2022/02/17 11:14:41;;;;;;;1.60;1.50;;;2.70;99.90;;;;;;6286023;28;20299;-73
2022/02/17 11:17:47;;;;;;;3.13;1.73;;;2.70;99.90;;;;;;6285661;28;20301;-72
2022/02/17 11:20:57;;;;;;;2.03;1.70;;;2.60;99.90;;;;;;6286062;28;20298;-73
2022/02/17 11:24:03;;;;;;;1.60;1.60;;;2.70;99.90;;;;;;6285742;28;20301;-72
2022/02/17 11:27:09;;;;;;;2.30;2.20;;;2.70;99.90;;;;;;6285019;28;20455;-73
2022/02/17 11:30:27;;;;;;;1.87;1.80;;;2.70;99.90;;;;;;6286246;28;20274;-73
2022/02/17 11:33:35;;;;;;;2.33;1.90;;;2.70;99.90;;;;;;6285617;28;20302;-72
2022/02/17 11:36:40;;;;;;;2.47;2.37;;;2.60;99.90;;;;;;6268328;28;20267;-73
2022/02/17 11:39:57;;;;;;;3.50;2.60;;;2.70;99.90;;;;;;6285643;28;20297;-73
2022/02/17 11:43:05;;;;;;;2.47;2.00;;;2.70;99.90;;;;;;6285537;28;20297;-73
2022/02/17 11:46:15;;;;;;;2.77;2.40;;;2.60;99.90;;;;;;6286609;28;20272;-73
2022/02/17 11:49:48;;;;;;;2.53;2.40;;;2.60;99.90;;;;;;6285399;28;20303;-73
2022/02/17 11:53:25;;;;;;;2.57;2.37;;;2.40;99.90;;;;;;6285703;28;20302;-73
2022/02/17 11:56:40;;;;;;;2.60;2.40;;;2.40;99.90;;;;;;6285140;28;20272;-73
2022/02/17 11:59:47;;;;;;;2.57;2.47;;;2.40;99.90;;;;;;6285446;28;20295;-73
2022/02/17 12:02:57;;;;;;;4.47;2.87;;;2.50;99.90;;;;;;6284861;28;20295;-73
2022/02/17 12:06:33;;;;;;;3.17;3.00;;;2.40;99.90;;;;;;6285181;28;20276;-73
2022/02/17 12:09:43;;;;;;;2.60;2.50;;;2.30;99.90;;;;;;6285774;28;20295;-73
2022/02/17 12:13:12;;;;;;;5.13;2.80;;;2.30;99.90;;;;;;6285032;28;20300;-72
2022/02/17 12:16:34;;;;;;;4.93;2.40;;;2.40;99.90;;;;;;6289693;28;20270;-72
2022/02/17 12:19:41;;;;;;;2.17;2.07;;;2.30;99.90;;;;;;6289895;28;20291;-72
2022/02/17 12:22:52;;;;;;;2.80;1.73;;;2.30;99.90;;;;;;6289861;28;20305;-73
2022/02/17 12:25:57;;;;;;;1.70;1.70;;;2.40;99.90;;;;;;6290643;28;20295;-72
2022/02/17 12:29:02;;;;;;;2.00;1.87;;;2.30;99.90;;;;;;6290125;28;20295;-72
2022/02/17 12:32:16;;;;;;;1.63;1.53;;;2.40;99.90;;;;;;6289267;28;20320;-73
2022/02/17 12:35:29;;;;;;;2.80;1.47;;;2.30;99.90;;;;;;6290569;28;20271;-72
2022/02/17 12:38:35;;;;;;;1.40;1.33;;;2.20;99.90;;;;;;6290462;28;20295;-73
2022/02/17 12:41:56;;;;;;;1.73;1.40;;;2.20;99.90;;;;;;6289780;28;20290;-72
2022/02/17 12:45:01;;;;;;;1.27;1.27;;;2.30;99.90;;;;;;6288499;28;20275;-73
2022/02/17 12:48:07;;;;;;;1.97;1.30;;;2.30;99.90;;;;;;6289905;28;20303;-72
2022/02/17 12:51:36;;;;;;;1.20;1.20;;;2.20;99.90;;;;;;6289755;28;20277;-73
2022/02/17 12:54:56;;;;;;;3.47;1.50;;;2.10;99.90;;;;;;6289524;28;20297;-72
2022/02/17 12:58:02;;;;;;;1.17;1.10;;;2.10;99.90;;;;;;6289099;28;20295;-72
2022/02/17 13:01:07;;;;;;;1.70;1.60;;;2.00;99.90;;;;;;6289683;28;20284;-75
2022/02/17 13:04:15;;;;;;;1.20;1.20;;;2.00;99.90;;;;;;6288861;28;20291;-74
2022/02/17 13:07:29;;;;;;;3.20;1.30;;;2.00;99.90;;;;;;6289068;28;20375;-73
2022/02/17 13:10:35;;;;;;;1.60;1.40;;;2.20;99.90;;;;;;6288878;28;20267;-73
2022/02/17 13:13:41;;;;;;;1.50;1.50;;;2.10;99.90;;;;;;6288969;28;20313;-72
2022/02/17 13:16:48;;;;;;;2.67;1.50;;;2.10;99.90;;;;;;6289413;28;20270;-73
2022/02/17 13:19:56;;;;;;;1.50;1.50;;;2.20;99.90;;;;;;6288860;28;20475;-73
2022/02/17 13:23:19;;;;;;;1.30;1.30;;;2.30;99.90;;;;;;6288478;28;20303;-72
2022/02/17 13:26:29;;;;;;;1.27;1.27;;;2.30;99.90;;;;;;6288783;28;20271;-73
2022/02/17 13:29:35;;;;;;;1.43;1.30;;;2.20;99.90;;;;;;6288289;28;20296;-72
2022/02/17 13:32:42;;;;;;;1.27;1.27;;;2.30;99.90;;;;;;6288155;28;20299;-73
2022/02/17 13:35:50;;;;;;;1.00;1.00;;;2.30;99.90;;;;;;6289234;28;20272;-73
2022/02/17 13:39:12;;;;;;;1.77;1.30;;;2.30;99.90;;;;;;6288713;28;20300;-73
2022/02/17 13:42:20;;;;;;;2.67;1.00;;;2.30;99.90;;;;;;6287542;28;20509;-74
2022/02/17 13:45:35;;;;;;;2.30;1.30;;;2.30;99.90;;;;;;6289161;28;20272;-73
2022/02/17 13:48:41;;;;;;;1.20;1.20;;;2.30;99.90;;;;;;6288066;28;20302;-73
2022/02/17 13:51:47;;;;;;;1.07;1.07;;;2.30;99.90;;;;;;6287797;28;20275;-72
2022/02/17 13:54:57;;;;;;;3.50;1.20;;;2.30;99.90;;;;;;6287289;28;20306;-72
2022/02/17 13:58:03;;;;;;;1.23;1.23;;;2.40;99.90;;;;;;6287558;28;20300;-72
2022/02/17 14:01:09;;;;;;;1.30;1.30;;;2.40;99.90;;;;;;6287664;28;20276;-73
2022/02/17 14:04:29;;;;;;;1.20;1.20;;;2.40;99.90;;;;;;6286659;28;20610;-72
2022/02/17 14:07:35;;;;;;;1.20;1.20;;;2.40;99.90;;;;;;6287631;28;20295;-72
2022/02/17 14:10:42;;;;;;;1.07;1.07;;;2.40;99.90;;;;;;6287842;28;20267;-73
2022/02/17 14:13:48;;;;;;;1.33;1.30;;;2.40;99.90;;;;;;6286785;28;20300;-72
2022/02/17 14:16:54;;;;;;;0.83;0.83;;;2.40;99.90;;;;;;6287681;28;20272;-73
2022/02/17 14:20:13;;;;;;;1.20;1.20;;;2.40;99.90;;;;;;6286423;28;20472;-73
2022/02/17 14:23:18;;;;;;;1.00;1.00;;;2.40;99.90;;;;;;6286883;28;20298;-72
2022/02/17 14:26:25;;;;;;;1.73;1.10;;;2.40;99.90;;;;;;6287810;28;20275;-73
2022/02/17 14:29:35;;;;;;;1.00;1.00;;;2.50;99.90;;;;;;6286606;28;20296;-72
2022/02/17 14:32:40;;;;;;;1.10;1.10;;;2.50;99.90;;;;;;6286036;28;20317;-72
2022/02/17 14:35:47;;;;;;;1.20;1.20;;;2.40;99.90;;;;;;6287223;28;20271;-72
2022/02/17 14:38:52;;;;;;;1.10;1.10;;;2.40;99.90;;;;;;6285866;28;20294;-72
2022/02/17 14:41:59;;;;;;;1.13;1.10;;;2.40;99.90;;;;;;6286851;28;20276;-73
2022/02/17 14:45:06;;;;;;;1.10;1.10;;;2.30;99.90;;;;;;6286504;28;20486;-73
2022/02/17 14:48:17;;;;;;;1.00;1.00;;;2.20;99.90;;;;;;6286225;28;20300;-72
2022/02/17 14:51:24;;;;;;;1.00;1.00;;;2.20;99.90;;;;;;6287133;28;20272;-72
2022/02/17 14:54:29;;;;;;;1.10;1.10;;;2.20;99.90;;;;;;6286922;28;20303;-72
2022/02/17 14:57:36;;;;;;;1.20;1.20;;;2.20;99.90;;;;;;6286566;28;20299;-73
2022/02/17 15:00:42;;;;;;;1.30;1.30;;;2.20;99.90;;;;;;6286562;28;20268;-73
2022/02/17 15:03:47;;;;;;;1.37;1.37;;;2.20;99.90;;;;;;6286249;28;20303;-73
2022/02/17 15:06:52;;;;;;;1.00;1.00;;;2.20;99.90;;;;;;6286086;28;20269;-72
2022/02/17 15:09:58;;;;;;;1.10;1.10;;;2.10;99.90;;;;;;6280917;28;20281;-71
2022/02/17 15:13:05;;;;;;;1.10;1.10;;;2.10;99.90;;;;;;6284282;28;20300;-72
2022/02/17 15:16:12;;;;;;;1.10;1.10;;;2.10;99.90;;;;;;6286010;28;20475;-72
2022/02/17 15:19:17;;;;;;;1.30;1.30;;;2.10;99.90;;;;;;6286083;28;20290;-72
2022/02/17 15:22:23;;;;;;;1.33;1.33;;;2.10;99.90;;;;;;6285654;28;20320;-72
2022/02/17 15:25:29;;;;;;;1.00;1.00;;;2.00;99.90;;;;;;6286264;28;20444;-72
2022/02/17 15:28:36;;;;;;;1.20;1.20;;;2.00;99.90;;;;;;6286496;28;20302;-73
2022/02/17 15:31:41;;;;;;;1.10;1.10;;;2.00;99.90;;;;;;6286625;28;20267;-72
2022/02/17 15:34:46;;;;;;;1.30;1.30;;;2.00;99.90;;;;;;6286289;28;20298;-71
2022/02/17 15:37:53;;;;;;;1.20;1.20;;;2.00;99.90;;;;;;6285420;28;20296;-72
2022/02/17 15:41:00;;;;;;;1.10;1.10;;;1.90;99.90;;;;;;6286306;28;20550;-72
2022/02/17 15:44:07;;;;;;;1.10;1.10;;;1.90;99.90;;;;;;6285506;28;20469;-72
2022/02/17 15:47:13;;;;;;;1.10;1.10;;;1.90;99.90;;;;;;6285712;28;20298;-72
2022/02/17 15:50:20;;;;;;;1.13;1.13;;;1.90;99.90;;;;;;6288999;28;20275;-72
2022/02/17 15:53:31;;;;;;;1.20;1.20;;;2.00;99.90;;;;;;6273213;28;20307;-72
2022/02/17 15:56:36;;;;;;;1.37;1.00;;;1.90;99.90;;;;;;6291159;28;20319;-72
2022/02/17 15:59:42;;;;;;;1.17;1.17;;;1.80;99.90;;;;;;6290917;28;20299;-72
2022/02/17 16:02:49;;;;;;;1.20;1.10;;;1.80;99.90;;;;;;6290020;28;20308;-73
2022/02/17 16:05:54;;;;;;;1.00;1.00;;;1.80;99.90;;;;;;6290650;28;20590;-73
2022/02/17 16:09:03;;;;;;;3.10;0.93;;;1.80;99.90;;;;;;6290574;28;20296;-73
2022/02/17 16:12:10;;;;;;;1.00;1.00;;;1.80;99.90;;;;;;6290033;28;20267;-72
2022/02/17 16:15:17;;;;;;;1.00;1.00;;;1.80;99.90;;;;;;6282617;28;20653;-72
2022/02/17 16:18:23;;;;;;;1.00;1.00;;;1.80;99.90;;;;;;6289780;28;20300;-72
2022/02/17 16:21:29;;;;;;;0.90;0.90;;;1.80;99.90;;;;;;6290112;28;20303;-72
2022/02/17 16:24:37;;;;;;;1.10;1.10;;;1.70;99.90;;;;;;6289589;28;20307;-72
2022/02/17 16:27:45;;;;;;;1.43;1.17;;;1.70;99.90;;;;;;6289390;28;20298;-72
2022/02/17 16:30:52;;;;;;;2.10;0.90;;;1.70;99.90;;;;;;6290360;28;20272;-72
2022/02/17 16:33:57;;;;;;;1.17;1.17;;;1.70;99.90;;;;;;6289722;28;20468;-72
2022/02/17 16:37:03;;;;;;;1.10;1.10;;;1.70;99.90;;;;;;6289771;28;20275;-72